Flight Track Log - Related Links

Times and Time Zones

All times are in EST time to prevent confusion due to time zone crossing. See the N690TW flight status page for this flight to view local times or setup timezone preferences in your user account.

Time Position Orientation Groundspeed Altitude Reporting Facility
EST Latitude Longitude Course Direction KTS MPH feet Rate Location/Type
Fri 10:07:27 AM 39.9333 -105.1333 360° North 158 182 7,200  Level Denver TRACON
Fri 10:08:21 AM 39.9667 -105.1333 360° North 154 177 9,100 2,039 Climbing Denver TRACON
Fri 10:09:10 AM 39.9786 -105.1644 297° West 134 154 10,700 2,564 Climbing Denver Center
Fri 10:10:11 AM 39.9614 -105.2042 241° Southwest 128 147 13,800 2,410 Climbing Denver Center
Fri 10:11:12 AM 39.9414 -105.2486 240° Southwest 142 163 15,600 1,073 Climbing Denver Center
Fri 10:12:14 AM 39.9147 -105.3133 242° Southwest 192 221 16,000 732 Climbing Denver Center
Fri 10:13:15 AM 39.8794 -105.3750 233° Southwest 209 241 17,100 1,366 Climbing Denver Center
Fri 10:14:17 AM 39.8478 -105.4253 231° Southwest 183 211 18,800 1,366 Climbing Denver Center
Fri 10:15:18 AM 39.8131 -105.4833 232° Southwest 191 220 19,900 1,230 Climbing Denver Center
Fri 10:16:19 AM 39.7836 -105.5369 234° Southwest 182 209 21,300 1,415 Climbing Denver Center
Fri 10:17:21 AM 39.7725 -105.5964 256° West 168 193 22,800 1,512 Climbing Denver Center
Fri 10:18:22 AM 39.7586 -105.6606 254° West 170 196 24,400 1,463 Climbing Denver Center
Fri 10:19:24 AM 39.7447 -105.7253 254° West 185 213 25,800 1,268 Climbing Denver Center
Fri 10:20:25 AM 39.7311 -105.7914 255° West 190 219 27,000 927 Climbing Denver Center
Fri 10:21:27 AM 39.7189 -105.8544 256° West 181 208 27,700 484 Climbing Denver Center
Fri 10:22:29 AM 39.7139 -105.9250 265° West 194 223 28,000 146 Climbing Denver Center
Fri 10:23:30 AM 39.7069 -106.0097 264° West 233 268 28,000  Level Denver Center
Fri 10:24:32 AM 39.7039 -106.0914 267° West 228 262 28,000  Level Denver Center
Fri 10:25:34 AM 39.6983 -106.1936 266° West 239 275 28,000 -98 Level Denver Center
Fri 10:26:35 AM 39.6914 -106.2817 264° West 246 283 27,800 -488 Descending Denver Center
Fri 10:27:37 AM 39.6872 -106.3586 266° West 216 249 27,000 -387 Descending Denver Center
Fri 10:28:39 AM 39.6744 -106.4236 256° West 202 232 27,000  Level Denver Center
Fri 10:29:41 AM 39.6558 -106.5000 252° West 220 253 27,000 -341 Level Denver Center
Fri 10:30:42 AM 39.6322 -106.5964 252° West 236 272 26,300 -488 Descending Denver Center
Fri 10:31:44 AM 39.6125 -106.6753 252° West 240 276 26,000 -145 Descending Denver Center
Fri 10:32:46 AM 39.5900 -106.7647 252° West 235 270 26,000  Level Denver Center
Fri 10:33:48 AM 39.5708 -106.8411 252° West 233 268 26,000  Level Denver Center
Fri 10:34:50 AM 39.5458 -106.9317 250° West 241 277 26,000  Level Denver Center
Fri 10:35:52 AM 39.5275 -107.0100 253° West 239 275 26,000  Level Denver Center
Fri 10:36:54 AM 39.5039 -107.1019 252° West 241 277 26,000  Level Denver Center
Fri 10:37:56 AM 39.4836 -107.1833 252° West 246 283 26,000  Level Denver Center
Fri 10:38:58 AM 39.4619 -107.2631 251° West 245 282 26,000  Level Denver Center
Fri 10:40:00 AM 39.4386 -107.3558 252° West 244 281 26,000 -97 Level Denver Center
Fri 10:41:02 AM 39.4175 -107.4383 252° West 249 287 25,800 -677 Descending Denver Center
Fri 10:42:04 AM 39.3942 -107.5319 252° West 246 283 24,600 -1,113 Descending Denver Center
Fri 10:43:06 AM 39.3742 -107.6125 252° West 245 282 23,500 -1,113 Descending Denver Center
Fri 10:44:08 AM 39.3503 -107.7039 251° West 242 278 22,300 -1,065 Descending Denver Center
Fri 10:45:10 AM 39.3283 -107.7861 251° West 249 287 21,300 -1,113 Descending Denver Center
Fri 10:46:12 AM 39.3017 -107.8875 251° West 263 303 20,000 -1,161 Descending Denver Center
Fri 10:47:14 AM 39.2789 -107.9739 251° West 257 296 18,900 -1,258 Descending Denver Center
Fri 10:48:16 AM 39.2581 -108.0689 254° West 257 296 17,400 -1,839 Descending Denver Center
Fri 10:49:18 AM 39.2483 -108.1581 262° West 253 291 15,100 -2,226 Descending Denver Center
Fri 10:50:20 AM 39.2378 -108.2533 262° West 250 288 12,800 -1,935 Descending Denver Center
Fri 10:51:22 AM 39.2075 -108.3308 243° Southwest 245 282 11,100 -1,790 Descending Denver Center
Fri 10:52:24 AM 39.1772 -108.4067 243° Southwest 232 267 9,100 -1,790 Descending Denver Center
Fri 10:53:26 AM 39.1539 -108.4708 245° Southwest 199 229 7,400 -1,403 Descending Denver Center
Fri 10:54:28 AM 39.1722 -108.5386 289° West 192 221 6,200 -1,065 Descending Denver Center
Fri 10:55:30 AM 39.1403 -108.5547 201° Southwest 149 171 5,200 -677 Descending Denver Center
Fri 10:56:32 AM 39.1214 -108.5222 127° Southeast 129 148 4,800 -387 Descending Denver Center
Fri 10:58:00 AM 39.1167 -108.5167 90° East  Level FlightAware Approximate
Fri 11:05:00 AM 39.1224 -108.5267 90° East  Level Estimated
Fri 11:06:00 AM 39.1224 -108.5267 90° East  Level Estimated

Login

Don't have an account? Register now (free) for customized features, flight alerts, and more!